Startpagina
METAR-TAF:

METAR-TAF

Vliegvelden :

Euro, Nederland

Productieplatform

breedte: 51-59-52N, lengte: 3-16-30E, hoogte: 18 m

Actueel weer

Dit bericht is 55 minuten geleden gemaakt, om 18:25 UTC
Wind 15 kt uit het noordoosten met uitschieters tot 15 kt
Temperatuur 16°C
Vochtigheid 68%
Druk 1015 hPa
Zicht 10 km of meer

METAR: EHSA 221825Z AUTO 05015G15KT 9999 ///////// 16/10 Q1015 W12/H3

Tijdstip: 21:20 (19:20 UTC)


TAF: ontbreekt

Waarnemingen en weersverwachtingen van meer dan 4000 vliegvelden (METAR en TAF).

De beschikbare stations zijn de gele en rode punten op de kaart.

Ga met uw muis naar het station om de naam te zien.

Klik dan om waarnemingen en weersverwachtingen te zien.

kaart wijzigen: klik op de groene knoppen met een zwart kruis om in te zoomen, op de groene knop met een streepje om uit te zoomen of op de groene pijlen voor aangrenzende kaarten.


METAR-TAF: